Time;durP1;ratioP1;P1;durP2;ratioP2;P2;SDS_P1;SDS_P2;PMS_P1;PMS_P2;Temp;Humidity;BMP_temperature;BMP_pressure;BME280_temperature;BME280_humidity;BME280_pressure;Samples;Min_cycle;Max_cycle;Signal;HPM_P1;HPM_P2
2023/02/28 00:01:25;;;;;;;8.95;4.68;;;;;;;3.91;47.19;103043.66;4900737;28;115249;-66
2023/02/28 00:03:53;;;;;;;9.80;4.70;;;;;;;3.90;47.00;103057.63;4903706;28;123555;-65
2023/02/28 00:06:20;;;;;;;8.82;4.65;;;;;;;3.90;47.15;103052.41;4897224;28;123421;-68
2023/02/28 00:08:48;;;;;;;7.63;4.65;;;;;;;3.89;47.07;103053.25;4903603;28;113481;-65
2023/02/28 00:11:16;;;;;;;8.57;4.75;;;;;;;3.87;46.97;103052.34;4902296;28;115111;-65
2023/02/28 00:13:46;;;;;;;7.18;4.63;;;;;;;3.85;47.15;103054.03;4904669;28;124172;-63
2023/02/28 00:16:22;;;;;;;11.45;4.93;;;;;;;3.84;47.20;103047.94;4902520;28;124060;-64
2023/02/28 00:18:49;;;;;;;7.10;4.60;;;;;;;3.84;47.10;103052.25;4895206;28;114624;-63
2023/02/28 00:21:18;;;;;;;9.60;4.93;;;;;;;3.82;47.38;103043.50;4915532;28;113120;-65
2023/02/28 00:23:46;;;;;;;8.90;5.07;;;;;;;3.80;46.99;103039.97;4898096;28;124240;-64
2023/02/28 00:26:13;;;;;;;7.93;4.20;;;;;;;3.79;47.39;103032.97;4903528;28;124090;-64
2023/02/28 00:28:44;;;;;;;7.13;4.28;;;;;;;3.77;47.17;103045.13;4900866;28;114305;-64
2023/02/28 00:31:13;;;;;;;7.53;4.40;;;;;;;3.77;47.49;103040.78;4904942;28;114063;-64
2023/02/28 00:33:40;;;;;;;8.90;4.50;;;;;;;3.76;47.39;103043.38;4900254;28;123961;-64
2023/02/28 00:36:10;;;;;;;8.50;4.90;;;;;;;3.75;47.27;103036.34;4898562;28;123123;-64
2023/02/28 00:38:39;;;;;;;9.25;4.55;;;;;;;3.74;47.26;103039.84;4901859;28;114643;-64
2023/02/28 00:41:07;;;;;;;10.80;4.75;;;;;;;3.74;47.51;103034.63;4898178;28;114362;-64
2023/02/28 00:43:37;;;;;;;10.30;4.95;;;;;;;3.72;47.31;103036.31;4907161;28;122607;-64
2023/02/28 00:46:06;;;;;;;6.80;4.68;;;;;;;3.72;47.34;103036.31;4902987;28;123611;-64
2023/02/28 00:48:33;;;;;;;9.27;4.90;;;;;;;3.72;47.18;103036.31;4867483;28;1143955;-65
2023/02/28 00:51:01;;;;;;;10.07;4.20;;;;;;;3.71;47.47;103035.41;4908294;28;114004;-66
2023/02/28 00:53:29;;;;;;;9.02;4.28;;;;;;;3.72;47.35;103036.31;4904116;28;123259;-65
2023/02/28 00:55:57;;;;;;;8.52;4.47;;;;;;;3.72;47.41;103036.31;4906177;28;124159;-65
2023/02/28 00:58:26;;;;;;;7.88;4.28;;;;;;;3.72;47.61;103041.56;4905227;28;113431;-65
2023/02/28 01:00:53;;;;;;;7.13;4.07;;;;;;;3.70;47.58;103039.78;4905858;28;113999;-65
2023/02/28 01:03:22;;;;;;;10.00;4.53;;;;;;;3.70;47.37;103045.03;4904971;28;124585;-65
2023/02/28 01:05:50;;;;;;;10.45;4.75;;;;;;;3.68;47.59;103046.75;4920641;28;123948;-65
2023/02/28 01:08:17;;;;;;;8.45;4.40;;;;;;;3.69;47.63;103055.47;4898835;28;113480;-65
2023/02/28 01:10:44;;;;;;;8.45;4.88;;;;;;;3.67;47.68;103058.09;4905479;28;114230;-65
2023/02/28 01:13:14;;;;;;;9.95;5.25;;;;;;;3.65;47.69;103051.91;4901782;28;123068;-65
2023/02/28 01:15:45;;;;;;;10.70;4.80;;;;;;;3.64;47.74;103055.41;4908080;28;122947;-66
2023/02/28 01:18:13;;;;;;;8.52;4.60;;;;;;;3.64;47.11;103057.16;4908500;28;114249;-65
2023/02/28 01:20:40;;;;;;;7.80;4.47;;;;;;;3.63;47.51;103058.84;4903787;28;114044;-66
2023/02/28 01:23:09;;;;;;;9.15;4.60;;;;;;;3.64;47.65;103055.41;4910963;28;123320;-66
2023/02/28 01:25:36;;;;;;;13.85;4.80;;;;;;;3.64;47.44;103055.41;4902375;28;124065;-66
2023/02/28 01:28:05;;;;;;;9.35;4.35;;;;;;;3.64;47.83;103067.63;4898751;28;114599;-65
2023/02/28 01:30:33;;;;;;;7.55;4.63;;;;;;;3.64;47.60;103065.00;4902811;28;114155;-66
2023/02/28 01:33:01;;;;;;;11.65;4.63;;;;;;;3.63;47.63;103056.25;4905131;28;124487;-66
2023/02/28 01:35:32;;;;;;;6.88;4.30;;;;;;;3.62;47.66;103051.88;4900596;28;124069;-65
2023/02/28 01:38:00;;;;;;;10.60;4.80;;;;;;;3.62;47.55;103051.88;4899089;28;114397;-65
2023/02/28 01:40:47;;;;;;;8.43;4.47;;;;;;;3.61;47.58;103050.09;4908022;28;113257;-65
2023/02/28 01:43:43;;;;;;;8.25;4.50;;;;;;;3.60;47.79;103053.56;4905184;28;124240;-66
2023/02/28 01:46:13;;;;;;;8.82;4.85;;;;;;;3.59;47.70;103051.78;4898982;28;124026;-66
2023/02/28 01:48:55;;;;;;;8.88;4.28;;;;;;;3.58;47.80;103044.81;4883051;28;113589;-65
2023/02/28 01:51:29;;;;;;;11.20;5.10;;;;;;;3.58;47.54;103044.81;4887275;28;113702;-65
2023/02/28 01:54:02;;;;;;;9.00;4.78;;;;;;;3.57;47.75;103043.03;4905414;28;124542;-65
2023/02/28 01:56:35;;;;;;;9.23;4.82;;;;;;;3.55;47.66;103038.63;4917736;28;123444;-66
2023/02/28 01:59:04;;;;;;;9.45;4.38;;;;;;;3.54;47.62;103047.31;4909465;28;118239;-66
2023/02/28 02:01:32;;;;;;;7.97;4.70;;;;;;;3.49;47.80;103040.25;4906883;28;114014;-66
2023/02/28 02:04:03;;;;;;;11.02;5.22;;;;;;;3.48;47.94;103051.59;4906076;28;124091;-65
2023/02/28 02:06:51;;;;;;;8.73;4.80;;;;;;;3.46;47.73;103048.03;4896398;28;123928;-65
2023/02/28 02:09:18;;;;;;;9.95;5.00;;;;;;;3.46;47.82;103045.41;4903564;28;115927;-66
2023/02/28 02:11:46;;;;;;;8.15;4.60;;;;;;;3.45;48.06;103034.94;4905178;28;114863;-65
2023/02/28 02:14:41;;;;;;;13.02;4.78;;;;;;;3.44;47.99;103035.78;4914260;28;123306;-65
2023/02/28 02:17:52;;;;;;;9.48;4.90;;;;;;;3.46;48.06;103028.84;4909129;28;123136;-65
2023/02/28 02:20:38;;;;;;;8.20;4.38;;;;;;;3.47;48.04;103034.09;4912418;28;114369;-65
2023/02/28 02:23:08;;;;;;;8.57;3.97;;;;;;;3.48;48.14;103029.75;4912449;28;114181;-65
2023/02/28 02:25:35;;;;;;;7.35;4.18;;;;;;;3.52;48.26;103034.19;4903127;28;123249;-65
2023/02/28 02:28:17;;;;;;;8.63;4.20;;;;;;;3.53;48.20;103020.25;4907430;28;124238;-65
2023/02/28 02:30:54;;;;;;;8.27;4.18;;;;;;;3.57;48.48;103032.53;4906421;28;114439;-65
2023/02/28 02:33:37;;;;;;;8.25;4.18;;;;;;;3.61;48.49;103028.25;4901012;28;114035;-67
2023/02/28 02:36:15;;;;;;;8.25;4.05;;;;;;;3.65;48.56;103023.09;4905493;28;126664;-66
2023/02/28 02:39:02;;;;;;;7.22;3.95;;;;;;;3.69;48.49;103021.41;4906901;28;122871;-65
2023/02/28 02:41:38;;;;;;;8.52;4.35;;;;;;;3.76;48.68;103027.66;4909007;28;114415;-66
2023/02/28 02:44:13;;;;;;;8.90;4.22;;;;;;;3.79;48.38;103017.25;4906877;28;113712;-66
2023/02/28 02:46:50;;;;;;;7.15;3.90;;;;;;;3.83;48.65;103026.91;4903687;28;125085;-66
2023/02/28 02:49:38;;;;;;;7.85;3.88;;;;;;;3.83;48.58;103025.19;4904419;28;123975;-66
2023/02/28 02:52:08;;;;;;;6.30;3.65;;;;;;;3.86;48.65;103024.34;4907933;28;113145;-66
2023/02/28 02:54:40;;;;;;;7.00;3.55;;;;;;;3.89;48.68;103029.66;4909123;28;113198;-66
2023/02/28 02:57:15;;;;;;;6.70;4.10;;;;;;;3.92;48.62;103024.47;4903770;28;124923;-66
2023/02/28 02:59:44;;;;;;;9.52;4.40;;;;;;;3.94;48.51;103028.00;4893955;28;122941;-66
2023/02/28 03:02:16;;;;;;;5.78;3.78;;;;;;;3.96;48.66;103036.78;4903415;28;115703;-65
2023/02/28 03:04:51;;;;;;;7.70;3.85;;;;;;;3.99;48.64;103028.06;4908447;28;115230;-65
2023/02/28 03:07:21;;;;;;;8.13;4.20;;;;;;;4.00;48.41;103022.84;4904064;28;123135;-65
2023/02/28 03:09:53;;;;;;;7.35;3.83;;;;;;;4.00;48.68;103022.84;4905356;28;124328;-65
2023/02/28 03:12:28;;;;;;;5.93;4.15;;;;;;;4.01;48.64;103024.63;4904934;28;115983;-66
2023/02/28 03:15:17;;;;;;;9.90;3.90;;;;;;;4.00;48.76;103028.09;4902563;28;114332;-66
2023/02/28 03:17:58;;;;;;;6.72;3.80;;;;;;;4.01;48.70;103019.41;4907090;28;122513;-65
2023/02/28 03:21:07;;;;;;;6.57;3.95;;;;;;;4.03;48.69;103022.91;4907757;28;123413;-65
2023/02/28 03:24:19;;;;;;;7.93;4.47;;;;;;;4.05;48.74;103031.69;4903162;28;113281;-65
2023/02/28 03:26:52;;;;;;;6.10;3.75;;;;;;;4.07;48.81;103022.13;4912470;28;114375;-65
2023/02/28 03:29:40;;;;;;;7.88;4.10;;;;;;;4.09;49.06;103023.03;4906751;28;124759;-65
2023/02/28 03:32:26;;;;;;;7.55;3.72;;;;;;;4.10;48.85;103027.38;4907663;28;123823;-65
2023/02/28 03:35:00;;;;;;;;;;;;;;;4.13;48.69;103033.56;4907729;28;113655;-66
2023/02/28 03:37:29;;;;;;;9.07;4.20;;;;;;;4.15;48.88;103026.63;4905226;28;112835;-66
2023/02/28 03:40:00;;;;;;;7.03;3.90;;;;;;;4.18;49.16;103029.25;4906706;28;124774;-67
2023/02/28 03:42:31;;;;;;;8.77;3.80;;;;;;;4.19;49.12;103029.28;4903588;28;123537;-66
2023/02/28 03:45:10;;;;;;;6.38;3.72;;;;;;;4.23;48.85;103030.22;4902156;28;114651;-66
2023/02/28 03:47:45;;;;;;;6.57;3.42;;;;;;;4.27;48.89;103032.03;4918334;28;112900;-65
2023/02/28 03:50:15;;;;;;;8.50;3.72;;;;;;;4.31;49.04;103033.84;4907660;28;123031;-66
2023/02/28 03:52:55;;;;;;;11.07;3.63;;;;;;;4.33;49.00;103037.38;4904080;28;125065;-66
2023/02/28 03:55:22;;;;;;;6.88;3.60;;;;;;;4.35;48.81;103019.97;4905323;28;115298;-66
2023/02/28 03:57:59;;;;;;;7.57;3.72;;;;;;;4.37;48.83;103028.72;4902669;28;114823;-66
2023/02/28 04:00:34;;;;;;;9.35;3.65;;;;;;;4.39;48.98;103018.22;4904873;28;123938;-67
2023/02/28 04:03:02;;;;;;;6.78;3.83;;;;;;;4.41;48.77;103013.94;4900457;28;124381;-66
2023/02/28 04:05:30;;;;;;;6.75;3.53;;;;;;;4.42;48.99;103016.53;4902406;28;114640;-65
2023/02/28 04:08:07;;;;;;;6.72;3.30;;;;;;;4.43;49.02;103020.94;4901387;28;114462;-65
2023/02/28 04:10:35;;;;;;;6.07;3.17;;;;;;;4.46;48.71;103012.22;4903592;28;124150;-65
2023/02/28 04:13:02;;;;;;;5.82;3.25;;;;;;;4.47;48.74;103009.63;4904283;28;123067;-65
2023/02/28 04:15:29;;;;;;;6.45;3.40;;;;;;;4.51;48.77;103007.06;4902690;28;114656;-67
2023/02/28 04:17:57;;;;;;;5.45;3.17;;;;;;;4.54;48.81;103014.97;4910821;28;113954;-65
2023/02/28 04:20:24;;;;;;;6.65;3.33;;;;;;;4.55;48.65;103016.75;4916811;28;125632;-65
2023/02/28 04:22:51;;;;;;;4.47;2.85;;;;;;;4.58;49.08;103019.44;4902267;28;123912;-66
2023/02/28 04:25:19;;;;;;;6.63;3.00;;;;;;;4.60;48.73;103012.47;4901066;28;114331;-65
2023/02/28 04:27:48;;;;;;;7.18;3.08;;;;;;;4.61;48.87;103016.84;4903109;28;113288;-65
2023/02/28 04:30:16;;;;;;;7.10;3.15;;;;;;;4.62;48.92;103026.47;4896593;28;123766;-65
2023/02/28 04:32:43;;;;;;;7.03;3.05;;;;;;;4.64;49.06;103028.25;4924887;28;123794;-65
2023/02/28 04:35:10;;;;;;;4.57;2.85;;;;;;;4.68;48.88;103023.94;4899950;28;114592;-65
2023/02/28 04:37:38;;;;;;;5.18;2.90;;;;;;;4.70;48.88;103027.47;4901116;28;114565;-66
2023/02/28 04:40:07;;;;;;;6.57;2.78;;;;;;;4.71;48.68;103018.75;4910184;28;122943;-66
2023/02/28 04:42:35;;;;;;;6.78;2.80;;;;;;;4.73;48.79;103021.38;4892952;28;123666;-66
2023/02/28 04:45:03;;;;;;;4.93;3.00;;;;;;;4.74;48.56;103024.03;4906405;28;115237;-67
2023/02/28 04:47:30;;;;;;;5.03;2.60;;;;;;;4.77;48.88;103024.06;4901955;28;114897;-66
2023/02/28 04:49:58;;;;;;;6.68;2.53;;;;;;;4.79;48.31;103021.47;4902599;28;124027;-66
2023/02/28 04:52:27;;;;;;;4.45;2.53;;;;;;;4.80;48.63;103032.00;4902676;28;123809;-66
2023/02/28 04:54:55;;;;;;;3.85;2.67;;;;;;;4.81;48.59;103030.25;4900674;28;114590;-66
2023/02/28 04:57:22;;;;;;;4.65;2.47;;;;;;;4.79;48.50;103032.84;4903905;28;114137;-66
2023/02/28 04:59:49;;;;;;;6.22;2.90;;;;;;;4.80;48.45;103029.38;4904536;28;122941;-66
2023/02/28 05:02:16;;;;;;;5.30;2.72;;;;;;;4.79;48.71;103032.84;4920368;28;124482;-66
2023/02/28 05:04:44;;;;;;;4.95;2.58;;;;;;;4.78;48.53;103031.06;4902074;28;114421;-66
2023/02/28 05:07:11;;;;;;;5.70;2.90;;;;;;;4.78;48.59;103031.06;4915211;28;112953;-66
2023/02/28 05:09:38;;;;;;;5.68;2.80;;;;;;;4.80;48.45;103034.63;4900419;28;124390;-66
2023/02/28 05:12:06;;;;;;;5.18;3.08;;;;;;;4.80;48.61;103038.97;4906598;28;123786;-66
2023/02/28 05:14:33;;;;;;;6.55;3.15;;;;;;;4.81;48.59;103041.63;4903022;28;114670;-67
2023/02/28 05:17:00;;;;;;;5.65;2.97;;;;;;;4.80;48.39;103037.25;4901935;28;114123;-66
2023/02/28 05:19:28;;;;;;;6.50;2.92;;;;;;;4.79;48.45;103043.34;4920567;28;124151;-66
2023/02/28 05:21:55;;;;;;;6.82;3.00;;;;;;;4.79;48.32;103048.59;4881656;28;122904;-66
2023/02/28 05:24:23;;;;;;;5.85;3.10;;;;;;;4.80;48.64;103045.13;4899957;28;114093;-66
2023/02/28 05:26:52;;;;;;;5.60;3.20;;;;;;;4.81;48.58;103039.00;4916308;28;113966;-66
2023/02/28 05:29:20;;;;;;;6.53;3.22;;;;;;;4.82;48.43;103048.66;4904699;28;124033;-66
2023/02/28 05:31:47;;;;;;;5.70;3.15;;;;;;;4.82;48.67;103046.03;4915990;28;124666;-66
2023/02/28 05:34:15;;;;;;;5.75;3.08;;;;;;;4.85;48.51;103047.81;4905942;28;115495;-66
2023/02/28 05:36:43;;;;;;;4.63;2.92;;;;;;;4.86;48.71;103049.59;4903312;28;114716;-66
2023/02/28 05:39:12;;;;;;;5.63;3.13;;;;;;;4.87;48.31;103056.59;4900030;28;124819;-66
2023/02/28 05:41:43;;;;;;;5.40;2.90;;;;;;;4.88;48.51;103050.50;4907089;28;123894;-66
2023/02/28 05:44:10;;;;;;;5.32;2.72;;;;;;;4.90;48.32;103061.00;4902144;28;113283;-66
2023/02/28 05:46:38;;;;;;;7.18;2.70;;;;;;;4.88;48.04;103064.50;4899579;28;113976;-66
2023/02/28 05:49:05;;;;;;;5.90;3.13;;;;;;;4.86;48.51;103055.72;4905645;28;123113;-66
2023/02/28 05:51:36;;;;;;;5.45;2.80;;;;;;;4.85;48.48;103053.94;4907247;28;124259;-66
2023/02/28 05:54:03;;;;;;;5.28;2.95;;;;;;;4.86;48.54;103065.34;4911060;28;114439;-66
2023/02/28 05:56:31;;;;;;;4.28;2.95;;;;;;;4.86;48.33;103066.22;4908157;28;114029;-67
2023/02/28 05:58:58;;;;;;;6.28;3.05;;;;;;;4.86;48.50;103066.22;4904109;28;124090;-66
2023/02/28 06:01:35;;;;;;;6.18;3.38;;;;;;;4.85;48.30;103069.69;4902332;28;124740;-66
2023/02/28 06:04:06;;;;;;;6.05;3.42;;;;;;;4.85;48.25;103069.69;4902468;28;114199;-66
2023/02/28 06:06:36;;;;;;;4.53;2.75;;;;;;;4.84;48.31;103062.69;4900289;28;114101;-67
2023/02/28 06:09:05;;;;;;;5.75;3.35;;;;;;;4.82;48.30;103064.41;4902589;28;124111;-67
2023/02/28 06:11:32;;;;;;;6.05;2.90;;;;;;;4.82;48.53;103069.66;4908671;28;124602;-66
2023/02/28 06:14:01;;;;;;;8.60;3.63;;;;;;;4.79;48.49;103064.34;4907089;28;114621;-67
2023/02/28 06:16:30;;;;;;;5.45;3.17;;;;;;;4.80;48.21;103074.00;4904972;28;114634;-66
2023/02/28 06:18:59;;;;;;;9.95;3.30;;;;;;;4.79;48.30;103073.97;4904897;28;125043;-66
2023/02/28 06:21:27;;;;;;;6.20;3.50;;;;;;;4.79;48.34;103074.84;4907525;28;124712;-67
2023/02/28 06:23:56;;;;;;;5.80;3.40;;;;;;;4.79;48.31;103073.97;4910281;28;115858;-67
2023/02/28 06:26:24;;;;;;;7.63;3.25;;;;;;;4.77;48.54;103081.84;4918177;28;114032;-67
2023/02/28 06:28:51;;;;;;;6.65;3.15;;;;;;;4.76;48.21;103085.28;4905930;28;124211;-71
2023/02/28 06:31:19;;;;;;;7.18;3.05;;;;;;;4.75;48.50;103087.94;4906444;28;124707;-67
2023/02/28 06:33:47;;;;;;;7.10;3.42;;;;;;;4.73;48.38;103080.03;4906447;28;114487;-67
2023/02/28 06:36:15;;;;;;;7.95;3.53;;;;;;;4.73;48.65;103085.28;4907535;28;114566;-64
2023/02/28 06:38:43;;;;;;;6.90;3.58;;;;;;;4.73;48.36;103080.03;4905510;28;124125;-69
2023/02/28 06:41:11;;;;;;;6.00;3.63;;;;;;;4.74;48.69;103080.91;4903217;28;123856;-66
2023/02/28 06:43:41;;;;;;;5.88;3.22;;;;;;;4.74;48.79;103086.16;4904471;28;115094;-65
2023/02/28 06:46:13;;;;;;;7.63;3.35;;;;;;;4.75;48.67;103086.19;4902958;28;112883;-66
2023/02/28 06:48:43;;;;;;;6.95;3.50;;;;;;;4.77;48.47;103080.97;4903609;28;124113;-66
2023/02/28 06:51:13;;;;;;;7.28;3.72;;;;;;;4.78;48.58;103088.81;4903524;28;124018;-66
2023/02/28 06:53:41;;;;;;;8.07;3.58;;;;;;;4.78;48.45;103088.81;4907021;28;113125;-66
2023/02/28 06:56:13;;;;;;;6.35;3.70;;;;;;;4.76;48.27;103095.81;4907671;28;113935;-66
2023/02/28 06:58:41;;;;;;;7.70;3.85;;;;;;;4.76;48.58;103101.03;4904419;28;124388;-66
2023/02/28 07:01:08;;;;;;;9.35;4.60;;;;;;;4.76;48.85;103094.94;4901424;28;124209;-66
2023/02/28 07:03:36;;;;;;;7.63;3.63;;;;;;;4.75;48.47;103094.06;4918414;28;113618;-66
2023/02/28 07:06:06;;;;;;;6.45;3.60;;;;;;;4.77;48.43;103094.97;4909815;28;113019;-67
2023/02/28 07:08:35;;;;;;;6.68;3.20;;;;;;;4.80;48.42;103102.88;4903965;28;124170;-66
2023/02/28 07:11:03;;;;;;;6.35;3.70;;;;;;;4.84;48.73;103104.69;4902742;28;124467;-66
2023/02/28 07:13:30;;;;;;;5.60;3.28;;;;;;;4.87;48.53;103099.47;4901773;28;115337;-67
2023/02/28 07:16:03;;;;;;;5.65;3.08;;;;;;;4.92;48.64;103101.31;4908179;28;114917;-67
2023/02/28 07:18:31;;;;;;;5.63;3.00;;;;;;;4.95;49.00;103098.72;4902930;28;123592;-67
2023/02/28 07:21:02;;;;;;;7.22;3.60;;;;;;;4.97;48.71;103099.63;4911305;28;124284;-67
2023/02/28 07:23:29;;;;;;;8.95;3.65;;;;;;;5.01;48.72;103101.41;4902325;28;114360;-67
2023/02/28 07:25:56;;;;;;;5.28;2.92;;;;;;;5.02;48.59;103103.19;4907126;28;112819;-66
2023/02/28 07:28:24;;;;;;;7.20;3.67;;;;;;;5.04;48.67;103106.72;4906549;28;123640;-67
2023/02/28 07:30:51;;;;;;;5.38;3.17;;;;;;;5.04;48.62;103106.72;4904202;28;123772;-67
2023/02/28 07:33:19;;;;;;;8.23;3.20;;;;;;;5.06;48.41;103116.38;4899995;28;114583;-67
2023/02/28 07:35:46;;;;;;;5.05;2.97;;;;;;;5.08;48.59;103113.78;4900999;28;113828;-67
2023/02/28 07:38:13;;;;;;;4.40;2.85;;;;;;;5.07;48.24;103119.91;4905530;28;123137;-66
2023/02/28 07:40:41;;;;;;;4.65;2.90;;;;;;;5.08;48.15;103124.28;4907076;28;123941;-66
2023/02/28 07:43:08;;;;;;;4.93;3.10;;;;;;;5.07;48.29;103127.78;4900515;28;114129;-66
2023/02/28 07:45:35;;;;;;;6.82;3.35;;;;;;;5.05;48.38;103129.53;4902494;28;112982;-66
2023/02/28 07:48:02;;;;;;;4.30;2.70;;;;;;;5.03;48.30;103131.25;4901470;28;124322;-66
2023/02/28 07:50:30;;;;;;;4.70;2.97;;;;;;;5.01;48.04;103132.94;4896262;28;123485;-66
2023/02/28 07:52:58;;;;;;;4.63;2.78;;;;;;;4.99;47.82;103134.66;4907413;28;114327;-69
2023/02/28 07:55:26;;;;;;;5.05;2.80;;;;;;;4.97;48.00;103125.88;4906262;28;113906;-66
2023/02/28 07:57:54;;;;;;;6.05;2.72;;;;;;;4.96;48.32;103129.38;4903334;28;122970;-66
2023/02/28 08:00:21;;;;;;;4.57;2.38;;;;;;;4.99;48.12;103126.78;4907195;28;123012;-66
2023/02/28 08:02:49;;;;;;;4.50;2.20;;;;;;;5.01;47.73;103138.19;4897304;28;116156;-69
2023/02/28 08:05:17;;;;;;;3.72;2.42;;;;;;;5.03;47.81;103136.50;4896258;28;115319;-67
2023/02/28 08:07:49;;;;;;;5.93;2.40;;;;;;;5.04;47.59;103128.59;4891474;28;124042;-66
2023/02/28 08:10:16;;;;;;;5.85;2.17;;;;;;;5.07;47.57;103131.28;4913437;28;123955;-66
2023/02/28 08:12:44;;;;;;;4.18;2.35;;;;;;;5.11;47.54;103134.84;4893511;28;113156;-65
2023/02/28 08:15:11;;;;;;;5.55;2.35;;;;;;;5.16;47.13;103135.81;4893181;28;112838;-66
2023/02/28 08:17:38;;;;;;;4.10;2.22;;;;;;;5.19;47.18;103133.22;4899447;28;123323;-66
2023/02/28 08:20:06;;;;;;;2.85;2.22;;;;;;;5.23;47.31;103140.25;4903656;28;123495;-66
2023/02/28 08:22:34;;;;;;;3.08;2.13;;;;;;;5.26;47.19;103132.44;4909573;28;114278;-66
2023/02/28 08:25:01;;;;;;;3.75;2.08;;;;;;;5.30;46.84;103130.75;4905892;28;113542;-66
2023/02/28 08:27:28;;;;;;;2.53;1.80;;;;;;;5.33;46.93;103135.13;4914524;28;124227;-66
2023/02/28 08:29:56;;;;;;;3.03;1.77;;;;;;;5.37;46.59;103136.94;4906628;28;124337;-71
2023/02/28 08:32:23;;;;;;;4.18;1.90;;;;;;;5.40;46.96;103131.75;4901010;28;114262;-65
2023/02/28 08:34:56;;;;;;;2.60;2.00;;;;;;;5.43;46.56;103126.53;4896118;28;114127;-65
2023/02/28 08:37:24;;;;;;;2.88;1.60;;;;;;;5.46;46.28;103121.31;4905456;28;125981;-66
2023/02/28 08:39:51;;;;;;;3.38;1.88;;;;;;;5.51;46.19;103118.75;4902061;28;124051;-66
2023/02/28 08:42:23;;;;;;;3.80;1.70;;;;;;;5.54;46.29;103124.94;4902769;28;114612;-66
2023/02/28 08:44:50;;;;;;;3.53;2.00;;;;;;;5.60;46.00;103124.13;4904764;28;114648;-67
2023/02/28 08:47:18;;;;;;;2.75;1.73;;;;;;;5.65;46.35;103127.66;4898903;28;124091;-66
2023/02/28 08:49:46;;;;;;;2.50;1.55;;;;;;;5.70;45.99;103127.75;4897719;28;124235;-66
2023/02/28 08:52:13;;;;;;;2.75;1.55;;;;;;;5.76;45.98;103130.44;4906815;28;115956;-66
2023/02/28 08:54:40;;;;;;;4.05;1.60;;;;;;;5.80;45.77;103133.16;4896023;28;114873;-66
2023/02/28 08:57:07;;;;;;;3.35;1.70;;;;;;;5.86;45.33;103132.34;4895989;28;125427;-66
2023/02/28 08:59:35;;;;;;;2.67;1.40;;;;;;;5.91;45.53;103133.25;4893180;28;122713;-66
2023/02/28 09:02:02;;;;;;;2.65;1.63;;;;;;;5.99;45.91;103134.25;4892120;28;114518;-66
2023/02/28 09:04:32;;;;;;;4.55;1.40;;;;;;;6.07;45.58;103125.59;4893597;28;113927;-66
2023/02/28 09:06:59;;;;;;;5.50;2.10;;;;;;;6.14;45.22;103122.13;4903086;28;124062;-66
2023/02/28 09:09:27;;;;;;;4.72;1.73;;;;;;;6.19;44.95;103125.69;4903261;28;124158;-66
2023/02/28 09:11:56;;;;;;;3.33;1.80;;;;;;;6.26;45.17;103129.28;4905433;28;114342;-74
2023/02/28 09:14:23;;;;;;;4.38;1.70;;;;;;;6.33;45.07;103129.34;4895655;28;113951;-66
2023/02/28 09:16:50;;;;;;;5.75;1.90;;;;;;;6.38;44.75;103122.34;4890180;28;122971;-66
2023/02/28 09:19:18;;;;;;;3.00;1.63;;;;;;;6.45;44.51;103127.69;4903659;28;123967;-66
2023/02/28 09:21:45;;;;;;;2.95;1.73;;;;;;;6.51;44.64;103117.22;4910032;28;114090;-66
2023/02/28 09:24:15;;;;;;;3.45;1.63;;;;;;;6.56;44.36;103120.78;4893552;28;114295;-66
2023/02/28 09:26:42;;;;;;;4.15;1.80;;;;;;;6.60;44.18;103120.81;4895791;28;124049;-66
2023/02/28 09:29:31;;;;;;;3.45;1.52;;;;;;;6.69;44.57;103122.63;4905638;28;124076;-66
2023/02/28 09:31:58;;;;;;;3.45;1.70;;;;;;;6.77;44.17;103120.06;4905489;28;114079;-66
2023/02/28 09:34:30;;;;;;;2.90;1.40;;;;;;;6.83;43.43;103120.97;4909810;28;114065;-66
2023/02/28 09:36:58;;;;;;;4.20;1.40;;;;;;;6.89;43.39;103121.91;4897976;28;123507;-66
2023/02/28 09:39:26;;;;;;;3.53;1.58;;;;;;;6.93;43.42;103121.94;4905101;28;124714;-66
2023/02/28 09:41:55;;;;;;;3.45;1.42;;;;;;;6.98;43.29;103109.66;4900832;28;115631;-67
2023/02/28 09:44:43;;;;;;;4.15;1.70;;;;;;;7.05;43.16;103109.72;4899855;28;113611;-66
2023/02/28 09:47:18;;;;;;;3.80;1.48;;;;;;;7.13;43.18;103114.16;4899829;28;122989;-66
2023/02/28 09:49:47;;;;;;;3.63;1.65;;;;;;;7.20;42.83;103110.69;4905305;28;123676;-67
2023/02/28 09:52:28;;;;;;;2.35;1.17;;;;;;;7.25;42.35;103112.47;4892652;28;114134;-66
2023/02/28 09:54:56;;;;;;;2.03;1.38;;;;;;;7.31;42.42;103112.47;4900649;28;113336;-67
2023/02/28 09:57:36;;;;;;;2.38;1.42;;;;;;;7.38;42.22;103114.28;4900114;28;122918;-66
2023/02/28 10:00:26;;;;;;;2.83;1.17;;;;;;;7.47;41.91;103114.31;4904335;28;123909;-65
2023/02/28 10:03:25;;;;;;;2.55;1.40;;;;;;;7.52;41.33;103112.59;4900191;28;114829;-66
2023/02/28 10:06:03;;;;;;;1.92;1.25;;;;;;;7.54;40.95;103110.84;4898262;28;114137;-66
2023/02/28 10:08:41;;;;;;;2.33;1.50;;;;;;;7.58;41.41;103112.63;4896467;28;125196;-66
2023/02/28 10:11:15;;;;;;;2.90;1.38;;;;;;;7.66;41.01;103103.88;4891523;28;124285;-66
2023/02/28 10:14:02;;;;;;;1.30;1.08;;;;;;;7.72;41.20;103109.16;4899324;28;113219;-66
2023/02/28 10:16:36;;;;;;;3.85;1.23;;;;;;;7.78;41.26;103093.38;4898780;28;112891;-66
2023/02/28 10:19:21;;;;;;;2.65;1.10;;;;;;;7.86;41.16;103096.03;4900590;28;124194;-66
2023/02/28 10:22:22;;;;;;;1.45;1.00;;;;;;;7.89;41.15;103099.56;4907697;28;123772;-68
2023/02/28 10:24:51;;;;;;;2.08;1.20;;;;;;;7.91;41.14;103105.72;4906378;28;114780;-66
2023/02/28 10:27:22;;;;;;;2.17;1.17;;;;;;;7.97;41.00;103104.84;4912243;28;113351;-66
2023/02/28 10:29:55;;;;;;;2.03;1.20;;;;;;;8.02;40.76;103102.19;4896059;28;124423;-66
2023/02/28 10:32:29;;;;;;;3.58;1.23;;;;;;;8.07;40.83;103105.75;4904258;28;123898;-65
2023/02/28 10:35:01;;;;;;;2.95;1.60;;;;;;;8.15;40.58;103098.72;4902123;28;115538;-65
2023/02/28 10:37:28;;;;;;;2.50;1.30;;;;;;;8.20;40.46;103102.25;4902966;28;114991;-65
2023/02/28 10:39:56;;;;;;;1.88;1.20;;;;;;;8.25;40.10;103104.88;4908724;28;124731;-65
2023/02/28 10:42:26;;;;;;;1.90;1.25;;;;;;;8.26;39.78;103096.97;4901830;28;123741;-66
2023/02/28 10:45:15;;;;;;;2.58;1.40;;;;;;;8.27;40.05;103101.38;4895595;28;114499;-66
2023/02/28 10:47:57;;;;;;;1.90;1.23;;;;;;;8.33;40.13;103085.53;4888039;28;113064;-66
2023/02/28 10:50:44;;;;;;;1.88;1.23;;;;;;;8.38;39.86;103081.13;4905244;28;124658;-65
2023/02/28 10:53:23;;;;;;;1.98;1.15;;;;;;;8.41;40.00;103084.66;4901210;28;123516;-66
2023/02/28 10:56:08;;;;;;;2.20;1.23;;;;;;;8.45;40.09;103083.81;4904697;28;115295;-65
2023/02/28 10:58:56;;;;;;;2.67;1.40;;;;;;;8.46;39.73;103083.81;4896746;28;113800;-65
2023/02/28 11:01:29;;;;;;;2.33;1.20;;;;;;;8.47;38.92;103084.69;4893779;28;124153;-65
2023/02/28 11:03:58;;;;;;;1.67;1.20;;;;;;;8.48;39.12;103081.19;4895088;28;124842;-65
2023/02/28 11:06:32;;;;;;;1.92;1.20;;;;;;;8.51;39.29;103081.16;4905739;28;114638;-65
2023/02/28 11:09:15;;;;;;;3.40;1.20;;;;;;;8.55;39.20;103077.63;4903712;28;114267;-65
2023/02/28 11:11:45;;;;;;;1.95;1.33;;;;;;;8.63;39.37;103075.88;4908521;28;124183;-65
2023/02/28 11:14:21;;;;;;;2.15;1.40;;;;;;;8.71;39.52;103068.81;4903851;28;125138;-65
2023/02/28 11:16:50;;;;;;;3.10;1.27;;;;;;;8.84;39.66;103074.09;4909042;28;113376;-68
2023/02/28 11:19:40;;;;;;;2.97;1.52;;;;;;;8.92;38.54;103062.59;4909444;28;113318;-65
2023/02/28 11:22:08;;;;;;;3.13;1.40;;;;;;;8.93;37.37;103068.78;4899825;28;124471;-65
2023/02/28 11:24:41;;;;;;;2.05;1.40;;;;;;;8.90;37.30;103068.78;4897972;28;124435;-65
2023/02/28 11:27:26;;;;;;;2.17;1.40;;;;;;;8.92;37.98;103072.31;4905243;28;114489;-65
2023/02/28 11:29:54;;;;;;;1.85;1.40;;;;;;;8.96;38.08;103063.47;4902137;28;115090;-65
2023/02/28 11:32:24;;;;;;;2.60;1.55;;;;;;;9.01;37.95;103056.44;4898530;28;123958;-64
2023/02/28 11:35:13;;;;;;;1.98;1.60;;;;;;;9.04;37.58;103051.16;4897411;28;124806;-65
2023/02/28 11:37:41;;;;;;;3.95;1.45;;;;;;;9.08;37.69;103047.59;4905003;28;113714;-65
2023/02/28 11:40:14;;;;;;;3.25;1.33;;;;;;;9.11;37.37;103058.13;4902901;28;114322;-65
2023/02/28 11:43:29;;;;;;;3.47;1.40;;;;;;;9.13;37.47;103056.38;4898688;28;124101;-65
2023/02/28 11:46:16;;;;;;;2.00;1.40;;;;;;;9.15;37.22;103046.69;4900419;28;124261;-64